Time;durP1;ratioP1;P1;durP2;ratioP2;P2;SDS_P1;SDS_P2;PMS_P1;PMS_P2;Temp;Humidity;BMP_temperature;BMP_pressure;BME280_temperature;BME280_humidity;BME280_pressure;Samples;Min_cycle;Max_cycle;Signal;HPM_P1;HPM_P2
2022/10/05 00:01:23;;;;;;;6.80;2.40;;;;;;;21.75;100.00;97405.63;6240199;23;20004;-92
2022/10/05 00:03:50;;;;;;;7.47;2.38;;;;;;;21.26;100.00;97387.09;6212786;23;20015;-91
2022/10/05 00:06:16;;;;;;;8.23;2.72;;;;;;;21.11;100.00;97370.56;6209659;23;20023;-92
2022/10/05 00:08:41;;;;;;;9.35;3.00;;;;;;;21.21;100.00;97378.66;6209985;23;20325;-92
2022/10/05 00:11:11;;;;;;;8.90;2.83;;;;;;;19.99;100.00;97368.84;6207870;23;20342;-91
2022/10/05 00:13:39;;;;;;;11.30;3.15;;;;;;;20.38;100.00;97363.50;6207764;23;20012;-91
2022/10/05 00:16:16;;;;;;;8.57;3.08;;;;;;;20.66;100.00;97383.53;6208008;23;20052;-91
2022/10/05 00:18:52;;;;;;;10.50;3.42;;;;;;;20.25;100.00;97351.13;6211335;23;20009;-91
2022/10/05 00:21:27;;;;;;;9.23;3.05;;;;;;;20.80;100.00;97346.28;6209737;23;20016;-91
2022/10/05 00:23:56;;;;;;;10.00;2.90;;;;;;;20.35;100.00;97345.16;6212372;23;20101;-92
2022/10/05 00:26:29;;;;;;;8.05;2.60;;;;;;;20.46;100.00;97342.59;6208697;23;20051;-91
2022/10/05 00:29:00;;;;;;;9.20;2.83;;;;;;;20.68;100.00;97355.16;6214127;23;20004;-90
2022/10/05 00:31:46;;;;;;;10.88;2.90;;;;;;;21.40;100.00;97348.94;6238716;23;20032;-90
2022/10/05 00:34:12;;;;;;;8.70;2.83;;;;;;;20.77;100.00;97319.19;6208765;23;20087;-91
2022/10/05 00:36:49;;;;;;;8.15;2.72;;;;;;;21.25;100.00;97335.06;6210417;23;20457;-92
2022/10/05 00:39:17;;;;;;;10.18;2.42;;;;;;;20.50;100.00;97328.19;6208317;23;20014;-92
2022/10/05 00:41:52;;;;;;;12.45;2.70;;;;;;;21.48;100.00;97320.03;6212205;23;20008;-91
2022/10/05 00:44:40;;;;;;;10.48;2.78;;;;;;;22.71;100.00;97313.16;6209556;23;20291;-92
2022/10/05 00:47:24;;;;;;;11.20;2.70;;;;;;;21.21;100.00;97316.81;6208782;23;20012;-91
2022/10/05 00:50:11;;;;;;;9.85;2.60;;;;;;;21.38;100.00;97334.09;6212032;23;20288;-91
2022/10/05 00:52:46;;;;;;;10.35;2.40;;;;;;;21.86;100.00;97327.84;6209978;23;20086;-91
2022/10/05 00:55:17;;;;;;;9.77;2.92;;;;;;;21.62;100.00;97334.91;6239798;23;20377;-90
2022/10/05 00:57:55;;;;;;;6.47;2.15;;;;;;;21.03;100.00;97329.66;6211565;23;20009;-91
2022/10/05 01:00:33;;;;;;;12.73;2.55;;;;;;;21.05;100.00;97307.38;6207891;23;20016;-92
2022/10/05 01:03:11;;;;;;;7.60;2.60;;;;;;;21.51;100.00;97320.78;6228266;23;20011;-92
2022/10/05 01:05:46;;;;;;;8.00;2.60;;;;;;;21.30;100.00;97310.84;6209393;23;20020;-91
2022/10/05 01:08:48;;;;;;;8.88;2.45;;;;;;;21.81;100.00;97326.38;6240273;23;20074;-92
2022/10/05 01:11:36;;;;;;;8.75;2.47;;;;;;;21.48;100.00;97312.06;6208613;23;20114;-92
2022/10/05 01:14:20;;;;;;;8.55;2.40;;;;;;;21.30;100.00;97295.75;6209306;23;20381;-91
2022/10/05 01:17:12;;;;;;;9.60;2.67;;;;;;;21.07;100.00;97310.78;6212296;23;20012;-91
2022/10/05 01:20:01;;;;;;;8.45;2.55;;;;;;;20.90;100.00;97292.63;6209375;23;20017;-92
2022/10/05 01:22:55;;;;;;;9.27;2.80;;;;;;;21.64;100.00;97282.59;6139416;23;20013;-91
2022/10/05 01:25:52;;;;;;;8.27;2.30;;;;;;;21.44;100.00;97292.03;6208036;23;20367;-93
2022/10/05 01:28:34;;;;;;;9.43;2.83;;;;;;;21.36;100.00;97294.44;6208544;23;20008;-93
2022/10/05 01:31:06;;;;;;;9.38;2.47;;;;;;;22.78;100.00;97301.03;6228153;23;20067;-92
2022/10/05 01:34:13;;;;;;;8.80;2.80;;;;;;;22.24;100.00;97290.28;6206153;23;20036;-92
2022/10/05 01:36:55;;;;;;;7.43;2.30;;;;;;;21.41;100.00;97283.50;6240820;23;20030;-92
2022/10/05 01:39:42;;;;;;;11.65;2.70;;;;;;;22.81;100.00;97282.16;6213972;23;20015;-92
2022/10/05 01:42:11;;;;;;;6.70;2.13;;;;;;;23.33;100.00;97282.31;6213875;23;20460;-93
2022/10/05 01:45:13;;;;;;;8.55;2.33;;;;;;;22.50;100.00;97269.63;6240512;23;20011;-92
2022/10/05 01:48:00;;;;;;;10.70;2.40;;;;;;;22.32;100.00;97255.13;6239421;23;20004;-92
2022/10/05 01:50:52;;;;;;;13.00;2.55;;;;;;;22.11;100.00;97247.91;6211495;23;20012;-92
2022/10/05 01:54:04;;;;;;;9.80;2.38;;;;;;;22.67;100.00;97241.66;6213818;23;20004;-92
2022/10/05 01:56:48;;;;;;;7.88;2.50;;;;;;;22.60;100.00;97235.16;6168311;23;20008;-92
2022/10/05 01:59:55;;;;;;;7.10;2.40;;;;;;;22.56;100.00;97243.50;6237273;23;20050;-91
2022/10/05 02:02:24;;;;;;;11.50;2.50;;;;;;;22.30;100.00;97231.34;6210582;22;20032;-96
2022/10/05 02:05:04;;;;;;;8.88;2.20;;;;;;;22.15;100.00;97224.63;6239396;23;20074;-95
2022/10/05 02:07:38;;;;;;;9.20;2.20;;;;;;;22.90;100.00;97214.13;6217435;23;20037;-95
2022/10/05 02:10:11;;;;;;;7.32;2.55;;;;;;;22.68;100.00;97229.19;6244626;23;20004;-96
2022/10/05 02:12:37;;;;;;;7.68;2.70;;;;;;;22.24;100.00;97231.88;6219413;23;20015;-94
2022/10/05 02:15:19;;;;;;;12.05;3.20;;;;;;;21.51;100.00;97228.75;6244025;23;20008;-95
2022/10/05 02:17:59;;;;;;;7.93;2.55;;;;;;;21.66;100.00;97210.84;6219571;23;20090;-96
2022/10/05 02:20:31;;;;;;;8.55;2.30;;;;;;;18.26;100.00;97208.59;6244796;23;20016;-96
2022/10/05 02:23:29;;;;;;;8.50;2.60;;;;;;;17.87;100.00;97181.16;6219172;23;20099;-96
2022/10/05 02:25:57;;;;;;;9.05;2.55;;;;;;;18.19;100.00;97192.31;6218059;23;20000;-95
2022/10/05 02:28:26;;;;;;;7.85;2.17;;;;;;;18.05;100.00;97209.03;6217671;23;20008;-94
2022/10/05 02:31:20;;;;;;;10.38;2.22;;;;;;;18.11;100.00;97188.47;6218073;23;20039;-95
2022/10/05 02:33:45;;;;;;;7.05;2.30;;;;;;;17.76;100.00;97179.22;6218192;23;20038;-95
2022/10/05 02:36:15;;;;;;;13.38;2.38;;;;;;;18.18;100.00;97187.16;6219385;23;20317;-96
2022/10/05 02:39:07;;;;;;;9.43;2.40;;;;;;;18.31;100.00;97205.66;6220418;23;20008;-96
2022/10/05 02:41:49;;;;;;;7.95;2.03;;;;;;;18.15;100.00;97205.78;6220895;23;20091;-96
2022/10/05 02:45:04;;;;;;;10.40;2.53;;;;;;;18.53;100.00;97205.09;6220978;23;20004;-96
2022/10/05 02:47:42;;;;;;;7.38;2.25;;;;;;;18.32;100.00;97195.00;6152269;23;20019;-95
2022/10/05 02:50:33;;;;;;;7.75;2.15;;;;;;;18.21;100.00;97193.06;6218996;23;20441;-96
2022/10/05 02:53:25;;;;;;;8.20;2.45;;;;;;;17.92;100.00;97197.56;6219329;23;20054;-96
2022/10/05 02:55:56;;;;;;;8.65;2.42;;;;;;;17.86;100.00;97190.88;6219570;23;20078;-95
2022/10/05 02:58:25;;;;;;;9.35;2.30;;;;;;;17.93;100.00;97178.19;6219844;23;20030;-96
2022/10/05 03:01:00;;;;;;;8.40;2.13;;;;;;;18.36;100.00;97180.66;6245324;23;20020;-96
2022/10/05 03:03:51;;;;;;;14.88;2.78;;;;;;;18.17;100.00;97170.44;6219560;23;20012;-95
2022/10/05 03:06:37;;;;;;;7.72;2.10;;;;;;;18.26;100.00;97150.56;6245522;23;20008;-96
2022/10/05 03:09:05;;;;;;;9.32;2.40;;;;;;;18.02;100.00;97158.25;6220235;23;20495;-95
2022/10/05 03:12:06;;;;;;;9.00;3.22;;;;;;;18.10;100.00;97158.63;6220627;23;20000;-96
2022/10/05 03:14:47;;;;;;;9.88;2.40;;;;;;;17.88;100.00;97136.25;6181087;23;20307;-96
2022/10/05 03:17:18;;;;;;;7.55;2.22;;;;;;;18.36;100.00;97151.63;6220336;23;20085;-96
2022/10/05 03:20:03;;;;;;;11.20;2.47;;;;;;;18.01;100.00;97141.59;6219324;23;20028;-96
2022/10/05 03:22:54;;;;;;;8.32;2.25;;;;;;;18.13;100.00;97152.28;6219065;23;20091;-96
2022/10/05 03:25:40;;;;;;;8.45;2.03;;;;;;;18.27;100.00;97149.59;6247282;23;20043;-96
2022/10/05 03:28:35;;;;;;;6.93;2.35;;;;;;;18.36;100.00;97127.88;6219537;23;20054;-96
2022/10/05 03:31:26;;;;;;;6.93;2.30;;;;;;;18.05;100.00;97140.47;6218970;23;20082;-96
2022/10/05 03:34:20;;;;;;;8.35;2.15;;;;;;;17.84;100.00;97108.38;6220837;23;20055;-96
2022/10/05 03:37:12;;;;;;;6.90;2.30;;;;;;;18.07;100.00;97114.81;6247723;23;20004;-96
2022/10/05 03:39:45;;;;;;;7.75;2.10;;;;;;;17.62;100.00;97113.34;6221046;23;20015;-96
2022/10/05 03:42:32;;;;;;;9.52;2.30;;;;;;;18.24;100.00;97104.94;6220630;23;20016;-96
2022/10/05 03:45:45;;;;;;;7.10;2.20;;;;;;;18.35;100.00;97093.66;6247054;23;20430;-96
2022/10/05 03:48:28;;;;;;;7.55;2.38;;;;;;;18.02;100.00;97103.72;6243878;23;20004;-96
2022/10/05 03:51:02;;;;;;;6.85;2.25;;;;;;;18.41;100.00;97117.84;6218867;23;20032;-96
2022/10/05 03:53:41;;;;;;;8.07;2.15;;;;;;;18.41;100.00;97102.03;6219811;23;20584;-96
2022/10/05 03:56:26;;;;;;;7.10;2.08;;;;;;;18.40;100.00;97100.31;6219656;23;20015;-96
2022/10/05 03:59:02;;;;;;;6.60;2.00;;;;;;;18.37;100.00;97082.06;6218991;23;20024;-96
2022/10/05 04:01:54;;;;;;;7.55;2.10;;;;;;;18.00;100.00;97078.41;6233911;23;20031;-96
2022/10/05 04:04:55;;;;;;;7.57;2.10;;;;;;;17.74;100.00;97075.63;6199726;23;20364;-96
2022/10/05 04:07:36;;;;;;;7.30;1.95;;;;;;;17.90;100.00;97057.03;6190843;23;20035;-96
2022/10/05 04:10:14;;;;;;;9.65;2.20;;;;;;;18.03;100.00;97039.47;6215722;23;20080;-96
2022/10/05 04:12:48;;;;;;;6.65;1.90;;;;;;;18.22;100.00;97036.44;6216749;23;20020;-96
2022/10/05 04:15:32;;;;;;;5.95;1.77;;;;;;;18.10;100.00;97046.97;6190507;23;20438;-96
2022/10/05 04:18:14;;;;;;;6.82;1.83;;;;;;;18.31;100.00;97042.03;6190624;23;20634;-96
2022/10/05 04:20:55;;;;;;;6.95;1.90;;;;;;;17.82;100.00;97023.25;6190239;23;20004;-96
2022/10/05 04:23:58;;;;;;;5.40;1.70;;;;;;;18.15;100.00;97024.63;6191258;23;20087;-96
2022/10/05 04:26:55;;;;;;;8.00;1.92;;;;;;;17.66;100.00;97004.97;6191404;23;20076;-96
2022/10/05 04:29:45;;;;;;;5.82;1.50;;;;;;;18.33;100.00;97025.16;6192601;23;20427;-96
2022/10/05 04:32:31;;;;;;;6.38;1.85;;;;;;;18.36;100.00;97024.09;6194262;23;20012;-96
2022/10/05 04:35:10;;;;;;;7.40;1.90;;;;;;;17.65;100.00;97007.72;6191949;23;20015;-96
2022/10/05 04:38:13;;;;;;;6.22;2.13;;;;;;;18.28;100.00;97011.41;6191991;23;20001;-96
2022/10/05 04:40:47;;;;;;;6.47;2.17;;;;;;;16.99;100.00;97018.06;6190625;23;20009;-96
2022/10/05 04:43:26;;;;;;;7.50;2.00;;;;;;;16.83;100.00;96995.28;6218176;23;20004;-96
2022/10/05 04:46:16;;;;;;;8.65;1.80;;;;;;;17.25;100.00;96994.50;6192691;23;20473;-96
2022/10/05 04:49:24;;;;;;;6.88;2.20;;;;;;;24.68;100.00;97028.91;6190980;23;20613;-96
2022/10/05 04:52:17;;;;;;;6.95;1.80;;;;;;;17.83;100.00;96974.84;6042713;23;20011;-95
2022/10/05 04:55:13;;;;;;;5.78;1.65;;;;;;;17.95;100.00;96988.19;6066147;23;20078;-96
2022/10/05 04:58:20;;;;;;;7.45;2.17;;;;;;;17.58;100.00;96983.53;6067230;23;20010;-96
2022/10/05 05:00:54;;;;;;;6.68;2.20;;;;;;;17.93;100.00;96983.00;6068988;23;20074;-96
2022/10/05 05:04:04;;;;;;;6.88;2.08;;;;;;;17.93;100.00;96967.19;6072654;23;20018;-96
2022/10/05 05:07:34;;;;;;;6.47;2.05;;;;;;;18.11;100.00;96957.19;6095893;23;20007;-96
2022/10/05 05:10:37;;;;;;;6.22;1.58;;;;;;;18.05;100.00;96941.75;5956090;24;20020;-96
2022/10/05 05:13:12;;;;;;;8.15;1.67;;;;;;;17.97;100.00;96955.47;5955622;24;20451;-96
2022/10/05 05:16:02;;;;;;;7.35;1.77;;;;;;;18.13;100.00;96935.97;5956708;24;20016;-96
2022/10/05 05:19:17;;;;;;;6.65;1.40;;;;;;;17.90;100.00;96936.56;5954069;24;20015;-96
2022/10/05 05:22:16;;;;;;;7.97;1.60;;;;;;;17.98;100.00;96937.84;5978772;24;20024;-96
2022/10/05 05:25:16;;;;;;;4.95;1.40;;;;;;;17.64;100.00;96919.03;5957029;24;20012;-96
2022/10/05 05:27:57;;;;;;;5.60;1.50;;;;;;;17.72;100.00;96909.66;5993536;23;20016;-96
2022/10/05 05:30:46;;;;;;;3.95;1.23;;;;;;;17.42;100.00;96906.44;6065113;23;20080;-96
2022/10/05 05:33:49;;;;;;;6.30;1.48;;;;;;;18.23;100.00;96923.81;6066147;23;20010;-96
2022/10/05 05:36:38;;;;;;;5.35;1.60;;;;;;;17.36;100.00;96900.63;6068016;23;20022;-96
2022/10/05 05:39:06;;;;;;;4.55;1.40;;;;;;;17.36;100.00;96908.53;6052994;23;20027;-96
2022/10/05 05:42:32;;;;;;;6.32;1.75;;;;;;;17.78;100.00;96918.94;6178357;23;20016;-96
2022/10/05 05:45:28;;;;;;;;;;;;;;;;;;;;;
2022/10/05 05:47:59;;;;;;;6.70;1.55;;;;;;;17.86;100.00;96903.44;6221688;23;20049;-96
2022/10/05 05:50:57;;;;;;;4.22;1.33;;;;;;;17.96;100.00;96905.47;6222706;23;20008;-96
2022/10/05 05:53:40;;;;;;;4.55;1.30;;;;;;;17.58;100.00;96875.47;6242687;23;20131;-95
2022/10/05 05:56:43;;;;;;;4.03;1.00;;;;;;;23.95;100.00;96929.09;6219811;23;20437;-96
2022/10/05 05:59:32;;;;;;;3.90;1.00;;;;;;;24.17;100.00;96908.44;6220330;23;20087;-96
2022/10/05 06:02:26;;;;;;;4.97;1.45;;;;;;;23.54;100.00;96904.44;6231138;23;20301;-96
2022/10/05 06:05:34;;;;;;;;;;;;;;;;;;;;;
2022/10/05 06:08:16;;;;;;;5.55;1.42;;;;;;;23.63;100.00;96905.41;6211021;23;20087;-94
2022/10/05 06:11:06;;;;;;;5.65;1.38;;;;;;;23.78;100.00;96901.34;6187552;23;20031;-96
2022/10/05 06:13:48;;;;;;;4.55;1.30;;;;;;;23.32;100.00;96917.03;6189321;23;20390;-96
2022/10/05 06:16:28;;;;;;;8.43;1.85;;;;;;;23.66;100.00;96902.47;6189103;23;20008;-96
2022/10/05 06:19:29;;;;;;;7.53;1.60;;;;;;;18.88;100.00;96900.78;6188656;23;20004;-96
2022/10/05 06:21:55;;;;;;;6.25;1.73;;;;;;;17.88;100.00;96896.28;6157146;23;20020;-96
2022/10/05 06:24:35;;;;;;;7.25;2.00;;;;;;;17.89;100.00;96897.94;6188377;23;20009;-95
2022/10/05 06:27:39;;;;;;;6.18;1.85;;;;;;;18.10;100.00;96893.97;6186784;23;20008;-96
2022/10/05 06:30:42;;;;;;;6.07;1.50;;;;;;;17.93;100.00;96889.88;6188867;23;20024;-95
2022/10/05 06:33:21;;;;;;;6.10;1.80;;;;;;;17.64;100.00;96875.03;6212263;23;20011;-95
2022/10/05 06:36:14;;;;;;;8.68;1.80;;;;;;;18.11;100.00;96878.03;6191117;23;20100;-96
2022/10/05 06:39:13;;;;;;;4.70;1.33;;;;;;;18.34;100.00;96900.16;6196657;23;20013;-96
2022/10/05 06:41:48;;;;;;;4.30;1.15;;;;;;;18.51;100.00;96898.97;6196129;23;20008;-96
2022/10/05 06:44:43;;;;;;;6.40;1.42;;;;;;;18.49;100.00;96868.34;6191887;23;20008;-93
2022/10/05 06:47:22;;;;;;;4.85;1.23;;;;;;;18.15;100.00;96934.91;6189039;23;20000;-96
2022/10/05 06:50:03;;;;;;;4.30;1.38;;;;;;;18.50;100.00;96963.28;6196975;23;20009;-96
2022/10/05 06:53:12;;;;;;;5.15;1.23;;;;;;;18.29;100.00;96938.38;6192434;23;20027;-96
2022/10/05 06:56:11;;;;;;;6.95;1.40;;;;;;;17.84;100.00;96936.97;6110241;23;20025;-95
2022/10/05 06:59:11;;;;;;;6.10;1.30;;;;;;;17.83;100.00;96943.19;6131086;23;20010;-96
2022/10/05 07:01:45;;;;;;;5.03;1.20;;;;;;;17.82;100.00;96932.75;6136695;23;20030;-96
2022/10/05 07:04:35;;;;;;;5.07;1.20;;;;;;;18.08;100.00;96923.09;6161113;23;20009;-96
2022/10/05 07:07:25;;;;;;;5.82;1.30;;;;;;;17.80;100.00;96955.72;6124269;23;20158;-96
2022/10/05 07:10:02;;;;;;;6.35;1.30;;;;;;;17.88;100.00;96961.34;6157017;23;19994;-96
2022/10/05 07:12:55;;;;;;;5.65;1.35;;;;;;;24.81;100.00;96960.09;6157856;23;20024;-95
2022/10/05 07:15:39;;;;;;;5.13;1.17;;;;;;;25.03;100.00;96905.53;6128351;23;20005;-96
2022/10/05 07:18:10;;;;;;;4.15;0.93;;;;;;;24.36;100.00;96905.69;6112835;23;20016;-96
2022/10/05 07:21:09;;;;;;;4.03;0.88;;;;;;;24.28;100.00;96899.44;6125372;23;20013;-96
2022/10/05 07:24:04;;;;;;;3.28;0.90;;;;;;;24.41;100.00;96902.59;6152543;23;20006;-96
2022/10/05 07:26:42;;;;;;;5.00;1.10;;;;;;;24.38;100.00;96905.56;6074719;23;20009;-96
2022/10/05 07:29:29;;;;;;;5.40;1.17;;;;;;;23.65;100.00;96927.41;6120859;23;20013;-96
2022/10/05 07:32:13;;;;;;;6.70;1.02;;;;;;;22.24;100.00;96912.34;6147714;23;20506;-95
2022/10/05 07:35:04;;;;;;;3.75;0.80;;;;;;;23.65;100.00;96895.50;6208015;23;20016;-95
2022/10/05 07:38:04;;;;;;;3.50;0.93;;;;;;;23.43;100.00;96915.25;6206949;23;20017;-96
2022/10/05 07:40:44;;;;;;;3.85;0.80;;;;;;;22.99;100.00;96908.47;6209332;23;20008;-95
2022/10/05 07:44:04;;;;;;;4.20;1.20;;;;;;;23.82;100.00;96950.66;6207696;23;20015;-94
2022/10/05 07:46:50;;;;;;;5.07;1.10;;;;;;;21.88;100.00;96941.06;6147070;23;20475;-96
2022/10/05 07:49:53;;;;;;;1.55;0.40;;;;;;;22.01;100.00;96948.84;6147435;23;20017;-96
2022/10/05 07:52:32;;;;;;;1.50;0.30;;;;;;;21.63;100.00;96945.81;6119132;23;20906;-95
2022/10/05 07:55:24;;;;;;;0.63;0.17;;;;;;;21.12;100.00;96934.84;6124560;23;20009;-96
2022/10/05 07:58:40;;;;;;;1.40;0.40;;;;;;;22.37;100.00;96979.41;6121705;23;20084;-93
2022/10/05 08:01:18;;;;;;;1.08;0.20;;;;;;;21.89;100.00;96966.66;6163863;23;20099;-94
2022/10/05 08:03:53;;;;;;;0.85;0.20;;;;;;;22.35;100.00;96930.88;6174235;23;20025;-96
2022/10/05 08:06:39;;;;;;;2.15;0.20;;;;;;;22.47;100.00;96934.31;6180360;23;20028;-94
2022/10/05 08:09:28;;;;;;;0.50;0.20;;;;;;;22.99;100.00;96935.03;6175917;23;20036;-94
2022/10/05 08:12:19;;;;;;;1.35;0.20;;;;;;;23.54;100.00;96959.50;6178087;23;20044;-93
2022/10/05 08:15:04;;;;;;;0.20;0.10;;;;;;;23.09;100.00;96911.13;6152039;23;20097;-95
2022/10/05 08:17:54;;;;;;;1.10;0.20;;;;;;;23.72;100.00;96959.66;6152916;23;20040;-93
2022/10/05 08:20:41;;;;;;;0.43;0.22;;;;;;;22.59;100.00;96916.44;6190783;23;20030;-94
2022/10/05 08:23:18;;;;;;;0.28;0.20;;;;;;;23.23;100.00;96931.19;6183911;23;20036;-94
2022/10/05 08:25:52;;;;;;;0.85;0.30;;;;;;;23.34;100.00;96928.41;6211417;23;20032;-93
2022/10/05 08:28:27;;;;;;;0.32;0.10;;;;;;;23.74;100.00;96933.72;6184327;23;20036;-95
2022/10/05 08:31:22;;;;;;;0.20;0.20;;;;;;;23.16;100.00;96930.91;6182031;23;20079;-95
2022/10/05 08:34:11;;;;;;;1.10;0.22;;;;;;;23.25;100.00;96976.25;6200416;23;20005;-91
2022/10/05 08:37:12;;;;;;;1.20;0.30;;;;;;;22.69;100.00;96965.16;6184279;23;20023;-95
2022/10/05 08:39:42;;;;;;;0.55;0.20;;;;;;;22.76;100.00;96921.13;6183049;23;20020;-94
2022/10/05 08:42:29;;;;;;;1.15;0.28;;;;;;;24.44;100.00;96998.25;6208547;23;20008;-94
2022/10/05 08:45:13;;;;;;;1.00;0.20;;;;;;;21.95;100.00;96977.59;6183257;23;20012;-94
2022/10/05 08:48:05;;;;;;;0.20;0.20;;;;;;;21.57;100.00;96952.47;6183187;23;20513;-95
2022/10/05 08:51:05;;;;;;;0.30;0.20;;;;;;;22.84;100.00;96978.94;6185801;23;20008;-94
2022/10/05 08:53:55;;;;;;;1.27;0.20;;;;;;;21.14;100.00;96993.03;6183977;23;20012;-95
2022/10/05 08:56:58;;;;;;;0.10;0.10;;;;;;;21.47;100.00;96981.53;6185863;23;20016;-94
2022/10/05 08:59:48;;;;;;;0.83;0.20;;;;;;;22.10;100.00;96990.53;6184964;23;20131;-94
2022/10/05 09:02:35;;;;;;;0.22;0.15;;;;;;;21.18;100.00;97006.91;6200189;23;20020;-94
2022/10/05 09:05:31;;;;;;;0.30;0.20;;;;;;;20.90;100.00;96998.50;6214991;23;20004;-93
2022/10/05 09:08:14;;;;;;;0.50;0.10;;;;;;;21.03;100.00;97001.00;6214479;23;20015;-93
2022/10/05 09:11:00;;;;;;;0.20;0.20;;;;;;;21.26;100.00;96997.34;6241599;23;20015;-93
2022/10/05 09:13:40;;;;;;;0.60;0.20;;;;;;;20.28;100.00;96995.31;6242210;23;20012;-94
2022/10/05 09:16:40;;;;;;;0.20;0.20;;;;;;;19.24;100.00;97004.75;6211821;23;20008;-92
2022/10/05 09:19:36;;;;;;;1.65;0.20;;;;;;;20.26;100.00;97011.34;6211881;23;20008;-94
2022/10/05 09:22:18;;;;;;;1.02;0.22;;;;;;;20.25;100.00;96995.53;6214328;23;20430;-92
2022/10/05 09:24:49;;;;;;;0.82;0.30;;;;;;;21.46;100.00;97008.13;6212971;23;20012;-92
2022/10/05 09:27:16;;;;;;;0.95;0.22;;;;;;;19.42;100.00;97007.88;6212944;23;20012;-92
2022/10/05 09:30:01;;;;;;;0.30;0.13;;;;;;;21.49;100.00;97000.78;6240218;23;20011;-93
2022/10/05 09:32:38;;;;;;;0.77;0.30;;;;;;;20.18;100.00;97018.16;6215157;23;20008;-94
2022/10/05 09:35:51;;;;;;;1.35;0.20;;;;;;;20.12;100.00;97027.41;6215892;23;20011;-93
2022/10/05 09:38:36;;;;;;;0.95;0.25;;;;;;;21.28;100.00;97011.34;6237501;23;20019;-96
2022/10/05 09:41:39;;;;;;;0.20;0.20;;;;;;;20.49;100.00;97021.94;6222383;23;20058;-96
2022/10/05 09:44:27;;;;;;;1.33;0.35;;;;;;;20.44;100.00;97027.56;6220854;23;20012;-96
2022/10/05 09:46:59;;;;;;;1.40;0.20;;;;;;;21.63;100.00;97028.03;6216838;23;20016;-96
2022/10/05 09:49:37;;;;;;;1.85;0.35;;;;;;;24.03;100.00;97019.72;6216302;23;20068;-95
2022/10/05 09:52:24;;;;;;;4.30;0.30;;;;;;;21.81;100.00;97015.06;6218061;23;20023;-94
2022/10/05 09:55:00;;;;;;;1.67;0.32;;;;;;;16.50;100.00;97027.19;6218961;23;20016;-96
2022/10/05 09:57:53;;;;;;;1.05;0.30;;;;;;;16.17;100.00;97038.78;6217154;23;20004;-94
2022/10/05 10:00:40;;;;;;;0.90;0.25;;;;;;;15.90;100.00;97062.31;6218627;23;20169;-96
2022/10/05 10:03:41;;;;;;;1.85;0.40;;;;;;;15.29;100.00;97062.16;6222083;23;20016;-96
2022/10/05 10:06:50;;;;;;;1.27;0.20;;;;;;;21.90;100.00;97083.28;6220898;23;20008;-96
2022/10/05 10:09:46;;;;;;;1.20;0.40;;;;;;;23.26;100.00;97063.06;6221717;23;20030;-96
2022/10/05 10:12:55;;;;;;;3.03;0.35;;;;;;;21.80;100.00;97075.25;6219968;23;20064;-95
2022/10/05 10:15:27;;;;;;;1.48;0.50;;;;;;;20.26;100.00;97089.88;6226751;23;20000;-96
2022/10/05 10:18:31;;;;;;;1.08;0.30;;;;;;;23.75;100.00;97089.78;6218020;23;20008;-95
2022/10/05 10:21:15;;;;;;;3.28;0.47;;;;;;;21.33;100.00;97117.03;6149439;23;20014;-95
2022/10/05 10:24:13;;;;;;;1.27;0.30;;;;;;;21.12;100.00;97120.41;6150810;23;20016;-95
2022/10/05 10:27:27;;;;;;;1.15;0.38;;;;;;;21.61;100.00;97109.53;6128757;23;20083;-96
2022/10/05 10:30:24;;;;;;;0.90;0.30;;;;;;;21.80;100.00;97108.91;6071465;23;20024;-95
2022/10/05 10:33:15;;;;;;;0.90;0.20;;;;;;;24.47;100.00;97107.19;6071343;23;20311;-96
2022/10/05 10:36:02;;;;;;;0.20;0.15;;;;;;;23.96;100.00;97106.50;6069258;23;20068;-96
2022/10/05 10:39:19;;;;;;;0.20;0.15;;;;;;;23.98;100.00;97080.59;6078650;23;20033;-96
2022/10/05 10:42:15;;;;;;;0.22;0.15;;;;;;;25.19;100.00;97102.28;6045302;23;20015;-96
2022/10/05 10:45:28;;;;;;;1.10;0.25;;;;;;;23.82;100.00;97115.69;6075890;23;20015;-96
2022/10/05 10:48:03;;;;;;;0.50;0.20;;;;;;;24.34;100.00;97101.31;6072979;23;20408;-96
2022/10/05 10:51:10;;;;;;;0.10;0.10;;;;;;;25.84;100.00;97128.09;6096305;23;20018;-96
2022/10/05 10:54:22;;;;;;;3.35;0.40;;;;;;;26.90;100.00;97142.63;6069822;23;20010;-96
2022/10/05 10:57:02;;;;;;;1.33;0.30;;;;;;;26.47;100.00;97145.13;6122635;23;20451;-96
2022/10/05 10:59:59;;;;;;;1.95;0.40;;;;;;;25.78;100.00;97152.72;6168112;23;20510;-94
2022/10/05 11:02:53;;;;;;;1.60;0.30;;;;;;;22.42;100.00;97144.56;6176883;23;20021;-94
2022/10/05 11:05:47;;;;;;;1.05;0.32;;;;;;;23.82;100.00;97168.94;6186459;23;20086;-95
2022/10/05 11:08:53;;;;;;;1.80;0.50;;;;;;;23.29;100.00;97167.34;6194679;23;20055;-96
2022/10/05 11:11:35;;;;;;;1.58;0.40;;;;;;;24.78;100.00;97156.84;6229819;23;20071;-96
2022/10/05 11:14:35;;;;;;;0.90;0.30;;;;;;;24.74;100.00;97164.28;6193621;23;20067;-94
2022/10/05 11:17:35;;;;;;;0.32;0.20;;;;;;;25.37;100.00;97174.44;6223865;23;19997;-96
2022/10/05 11:20:25;;;;;;;1.42;0.35;;;;;;;25.67;100.00;97179.63;6226326;23;20032;-96
2022/10/05 11:22:57;;;;;;;2.33;0.43;;;;;;;20.70;100.00;97169.63;6199429;23;20007;-93
2022/10/05 11:26:00;;;;;;;1.23;0.30;;;;;;;22.44;100.00;97185.09;6196741;23;20042;-95
2022/10/05 11:28:48;;;;;;;1.40;0.38;;;;;;;20.90;100.00;97186.63;6222452;23;20005;-96
2022/10/05 11:31:53;;;;;;;1.63;0.40;;;;;;;22.07;100.00;97166.00;6195737;23;20124;-96
2022/10/05 11:34:47;;;;;;;2.10;0.52;;;;;;;19.89;100.00;97186.06;6195885;23;20446;-96
2022/10/05 11:37:42;;;;;;;1.63;0.40;;;;;;;21.27;100.00;97202.38;6217895;23;20500;-95
2022/10/05 11:40:42;;;;;;;0.60;0.30;;;;;;;21.02;100.00;97174.25;6188544;23;20004;-96
2022/10/05 11:43:16;;;;;;;0.65;0.25;;;;;;;18.85;100.00;97192.34;6213023;23;20476;-96
2022/10/05 11:46:28;;;;;;;0.93;0.30;;;;;;;19.30;100.00;97184.03;6213791;23;20019;-96
2022/10/05 11:49:15;;;;;;;2.15;0.70;;;;;;;19.43;100.00;97200.75;6098305;23;20778;-96
2022/10/05 11:51:50;;;;;;;1.90;0.40;;;;;;;21.46;100.00;97204.41;6096810;23;20288;-94
2022/10/05 11:54:46;;;;;;;2.22;0.50;;;;;;;19.81;100.00;97216.69;6120499;23;20009;-96
2022/10/05 11:57:31;;;;;;;4.35;0.88;;;;;;;19.95;100.00;97237.69;6099066;23;20010;-96
2022/10/05 12:00:09;;;;;;;2.20;0.47;;;;;;;20.82;100.00;97220.81;6100049;23;20018;-96
2022/10/05 12:03:15;;;;;;;2.58;0.30;;;;;;;20.22;100.00;97242.81;6126842;23;20030;-96
2022/10/05 12:06:04;;;;;;;1.98;0.50;;;;;;;18.57;100.00;97219.78;6122196;23;20009;-96
2022/10/05 12:09:11;;;;;;;1.38;0.30;;;;;;;21.31;100.00;97230.34;6098594;23;20018;-96
2022/10/05 12:12:12;;;;;;;1.25;0.32;;;;;;;19.36;100.00;97240.91;6105136;23;20084;-96
2022/10/05 12:14:55;;;;;;;2.42;0.30;;;;;;;19.67;100.00;97244.09;6103779;23;20001;-96
2022/10/05 12:18:07;;;;;;;2.20;0.50;;;;;;;21.18;100.00;97246.31;6099629;23;20004;-95
2022/10/05 12:20:45;;;;;;;0.50;0.22;;;;;;;20.63;100.00;97243.38;6099245;23;20014;-93
2022/10/05 12:23:54;;;;;;;1.52;0.38;;;;;;;20.86;100.00;97239.00;6102093;23;20006;-95
2022/10/05 12:26:31;;;;;;;1.98;0.52;;;;;;;18.87;100.00;97226.59;6098357;23;20024;-95
2022/10/05 12:29:06;;;;;;;1.83;0.40;;;;;;;20.32;100.00;97243.00;6120603;23;20010;-94
2022/10/05 12:31:48;;;;;;;1.48;0.40;;;;;;;20.52;100.00;97253.91;6118329;23;20768;-94
2022/10/05 12:34:16;;;;;;;2.55;0.60;;;;;;;20.89;100.00;97256.47;6095803;23;20009;-96
2022/10/05 12:36:51;;;;;;;1.38;0.50;;;;;;;21.48;100.00;97253.72;6095078;23;20016;-95
2022/10/05 12:39:37;;;;;;;1.10;0.40;;;;;;;19.21;100.00;97245.47;6093745;23;20006;-95
2022/10/05 12:42:34;;;;;;;1.33;0.35;;;;;;;21.01;100.00;97270.63;6096656;23;20017;-94
2022/10/05 12:45:28;;;;;;;2.10;0.40;;;;;;;21.54;100.00;97259.56;6124086;23;20021;-96
2022/10/05 12:48:22;;;;;;;1.85;0.40;;;;;;;20.50;100.00;97258.47;6096298;23;20002;-95
2022/10/05 12:50:52;;;;;;;1.67;0.50;;;;;;;21.21;100.00;97240.81;6097117;23;20039;-95
2022/10/05 12:53:47;;;;;;;1.83;0.50;;;;;;;19.16;100.00;97256.34;6123612;23;20006;-96
2022/10/05 12:56:53;;;;;;;3.95;0.50;;;;;;;21.65;100.00;97263.03;6096573;23;20029;-94
2022/10/05 12:59:35;;;;;;;2.25;0.43;;;;;;;21.12;100.00;97247.63;6128183;23;20022;-94
2022/10/05 13:02:11;;;;;;;1.98;0.50;;;;;;;22.06;100.00;97244.81;6202300;23;20066;-94